Time;durP1;ratioP1;P1;durP2;ratioP2;P2;SDS_P1;SDS_P2;PMS_P1;PMS_P2;Temp;Humidity;BMP_temperature;BMP_pressure;BME280_temperature;BME280_humidity;BME280_pressure;Samples;Min_cycle;Max_cycle;Signal;HPM_P1;HPM_P2
2022/12/02 00:01:04;;;;;;;26.85;18.25;;;;;;;;;;5034080;28;20029;-80
2022/12/02 00:03:31;;;;;;;25.35;17.13;;;;;;;;;;5035279;28;20033;-81
2022/12/02 00:05:57;;;;;;;25.73;17.67;;;;;;;;;;5033936;28;20033;-81
2022/12/02 00:08:25;;;;;;;27.17;17.27;;;;;;;;;;5033937;28;20091;-79
2022/12/02 00:10:52;;;;;;;28.42;17.13;;;;;;;;;;5017337;28;20483;-80
2022/12/02 00:13:42;;;;;;;26.25;17.92;;;;;;;;;;5034872;28;20037;-79
2022/12/02 00:16:24;;;;;;;28.02;18.50;;;;;;;;;;5033853;28;20041;-80
2022/12/02 00:18:50;;;;;;;25.48;16.67;;;;;;;;;;5035265;28;20056;-80
2022/12/02 00:21:16;;;;;;;25.45;17.58;;;;;;;;;;5050319;28;20037;-80
2022/12/02 00:23:41;;;;;;;27.20;18.08;;;;;;;;;;5017186;28;20099;-80
2022/12/02 00:26:07;;;;;;;27.75;16.65;;;;;;;;;;5034888;28;20034;-80
2022/12/02 00:28:32;;;;;;;26.55;18.40;;;;;;;;;;5035279;28;20041;-80
2022/12/02 00:30:58;;;;;;;24.52;17.20;;;;;;;;;;5033476;28;20033;-80
2022/12/02 00:33:24;;;;;;;26.67;16.90;;;;;;;;;;5033943;28;20029;-80
2022/12/02 00:35:49;;;;;;;26.60;17.60;;;;;;;;;;5033622;28;20029;-80
2022/12/02 00:38:14;;;;;;;26.15;17.52;;;;;;;;;;5033797;28;20069;-80
2022/12/02 00:40:40;;;;;;;23.08;16.13;;;;;;;;;;5034566;28;20086;-80
2022/12/02 00:48:33;;;;;;;26.58;17.88;;;;;;;;;;5034688;28;20040;-81
2022/12/02 00:50:59;;;;;;;27.33;17.48;;;;;;;;;;5016613;28;20033;-80
2022/12/02 00:53:24;;;;;;;26.25;16.95;;;;;;;;;;5032924;28;20037;-81
2022/12/02 00:55:49;;;;;;;24.20;16.45;;;;;;;;;;5034017;28;20050;-80
2022/12/02 00:58:15;;;;;;;28.08;18.67;;;;;;;;;;5034518;28;20044;-80
2022/12/02 01:00:40;;;;;;;27.40;18.23;;;;;;;;;;5034202;28;20053;-81
2022/12/02 01:03:06;;;;;;;27.27;17.38;;;;;;;;;;5034557;28;20381;-80
2022/12/02 01:05:31;;;;;;;23.48;15.68;;;;;;;;;;5034422;28;20069;-80
2022/12/02 01:07:57;;;;;;;24.15;16.65;;;;;;;;;;5032777;28;20033;-79
2022/12/02 01:10:22;;;;;;;27.55;17.27;;;;;;;;;;5016171;28;20029;-80
2022/12/02 01:12:47;;;;;;;25.52;16.80;;;;;;;;;;5032787;28;20036;-81
2022/12/02 01:15:13;;;;;;;25.05;16.95;;;;;;;;;;5032936;28;20435;-80
2022/12/02 01:17:38;;;;;;;24.85;16.13;;;;;;;;;;5034151;28;20055;-80
2022/12/02 01:20:04;;;;;;;26.25;17.30;;;;;;;;;;5032573;28;20026;-80
2022/12/02 01:22:29;;;;;;;24.67;17.55;;;;;;;;;;5033805;28;20030;-80
2022/12/02 01:24:55;;;;;;;24.80;16.80;;;;;;;;;;5033953;28;20087;-81
2022/12/02 01:27:20;;;;;;;26.02;17.35;;;;;;;;;;5032321;28;20104;-80
2022/12/02 01:29:46;;;;;;;27.52;17.10;;;;;;;;;;5032457;28;20484;-80
2022/12/02 01:32:11;;;;;;;27.08;17.95;;;;;;;;;;5033510;28;20033;-80
2022/12/02 01:34:36;;;;;;;23.33;16.08;;;;;;;;;;5033646;28;20030;-80
2022/12/02 01:37:02;;;;;;;30.25;17.58;;;;;;;;;;5033636;28;20496;-80
2022/12/02 01:39:27;;;;;;;26.63;17.30;;;;;;;;;;5032482;28;20038;-80
2022/12/02 01:41:53;;;;;;;24.77;16.38;;;;;;;;;;5032378;28;20037;-80
2022/12/02 01:44:18;;;;;;;23.35;15.55;;;;;;;;;;5033305;28;20373;-81
2022/12/02 01:46:43;;;;;;;24.92;16.30;;;;;;;;;;5033616;28;20055;-80
2022/12/02 01:49:09;;;;;;;27.02;17.15;;;;;;;;;;5033607;28;20025;-80
2022/12/02 01:51:35;;;;;;;26.75;17.20;;;;;;;;;;5033457;28;20037;-81
2022/12/02 01:54:00;;;;;;;23.42;15.55;;;;;;;;;;5033049;28;20065;-80
2022/12/02 01:56:26;;;;;;;23.73;16.38;;;;;;;;;;5015156;28;20057;-80
2022/12/02 01:58:51;;;;;;;27.13;16.58;;;;;;;;;;5033647;28;20037;-80
2022/12/02 02:01:29;;;;;;;23.55;15.95;;;;;;;;;;5031881;28;20041;-80
2022/12/02 02:03:54;;;;;;;23.52;15.68;;;;;;;;;;5032888;28;20061;-80
2022/12/02 02:06:20;;;;;;;23.73;15.93;;;;;;;;;;5031803;28;20025;-80
2022/12/02 02:08:46;;;;;;;23.75;15.25;;;;;;;;;;5032048;28;20025;-80
2022/12/02 02:11:11;;;;;;;24.08;15.25;;;;;;;;;;5033205;28;20108;-79
2022/12/02 02:13:37;;;;;;;27.48;16.35;;;;;;;;;;5031878;28;20029;-80
2022/12/02 02:16:02;;;;;;;25.00;16.35;;;;;;;;;;5031724;28;20104;-80
2022/12/02 02:18:28;;;;;;;23.77;15.80;;;;;;;;;;5032133;28;20044;-80
2022/12/02 02:20:54;;;;;;;26.70;16.08;;;;;;;;;;5031666;28;20040;-80
2022/12/02 02:23:24;;;;;;;24.67;15.60;;;;;;;;;;5031946;28;20048;-80
2022/12/02 02:25:55;;;;;;;24.48;16.00;;;;;;;;;;5031730;28;20056;-80
2022/12/02 02:28:23;;;;;;;26.10;14.75;;;;;;;;;;5031639;28;20037;-80
2022/12/02 02:30:50;;;;;;;24.75;15.13;;;;;;;;;;5031489;28;20029;-80
2022/12/02 02:33:15;;;;;;;23.90;15.13;;;;;;;;;;5031719;28;20455;-79
2022/12/02 02:35:43;;;;;;;23.83;14.27;;;;;;;;;;5031389;28;20041;-79
2022/12/02 02:38:10;;;;;;;25.27;16.02;;;;;;;;;;5031760;28;20041;-80
2022/12/02 02:40:36;;;;;;;25.15;15.45;;;;;;;;;;5033232;28;20060;-80
2022/12/02 02:43:01;;;;;;;25.13;14.65;;;;;;;;;;5035433;28;20117;-80
2022/12/02 02:45:29;;;;;;;24.60;15.35;;;;;;;;;;5035785;28;20120;-79
2022/12/02 02:47:55;;;;;;;24.08;14.57;;;;;;;;;;5035343;28;20025;-79
2022/12/02 02:50:21;;;;;;;25.27;15.02;;;;;;;;;;5035652;28;20041;-79
2022/12/02 02:52:47;;;;;;;24.33;14.60;;;;;;;;;;5036692;28;20083;-80
2022/12/02 02:55:20;;;;;;;25.67;15.70;;;;;;;;;;5035108;28;20053;-79
2022/12/02 02:57:46;;;;;;;22.08;13.77;;;;;;;;;;5034992;28;20021;-80
2022/12/02 03:00:13;;;;;;;22.67;14.07;;;;;;;;;;5034964;28;20039;-79
2022/12/02 03:02:39;;;;;;;25.02;15.05;;;;;;;;;;5035113;28;20111;-79
2022/12/02 03:05:05;;;;;;;24.83;14.40;;;;;;;;;;5035162;28;20190;-80
2022/12/02 03:07:31;;;;;;;25.05;15.27;;;;;;;;;;5034970;28;20026;-80
2022/12/02 03:09:56;;;;;;;25.13;14.73;;;;;;;;;;5034942;28;20029;-80
2022/12/02 03:12:22;;;;;;;23.58;15.00;;;;;;;;;;5018452;28;20034;-80
2022/12/02 03:14:47;;;;;;;23.83;14.38;;;;;;;;;;5036081;28;20108;-79
2022/12/02 03:17:13;;;;;;;22.70;14.15;;;;;;;;;;5034787;28;20498;-79
2022/12/02 03:19:40;;;;;;;24.15;14.85;;;;;;;;;;5036087;28;20083;-79
2022/12/02 03:22:06;;;;;;;25.02;14.02;;;;;;;;;;5034771;28;20033;-79
2022/12/02 03:24:31;;;;;;;23.80;14.35;;;;;;;;;;5034990;28;20037;-79
2022/12/02 03:26:58;;;;;;;25.40;14.85;;;;;;;;;;5035012;28;20068;-78
2022/12/02 03:29:24;;;;;;;23.88;14.00;;;;;;;;;;5018062;28;20504;-79
2022/12/02 03:31:49;;;;;;;23.70;14.38;;;;;;;;;;5034571;28;20037;-78
2022/12/02 03:34:15;;;;;;;24.50;14.57;;;;;;;;;;5035914;28;20032;-78
2022/12/02 03:36:40;;;;;;;24.48;13.73;;;;;;;;;;5036260;28;20116;-79
2022/12/02 03:39:06;;;;;;;24.08;14.43;;;;;;;;;;5034982;28;20056;-78
2022/12/02 03:41:32;;;;;;;22.17;13.43;;;;;;;;;;5035577;28;20037;-79
2022/12/02 03:43:58;;;;;;;22.90;14.25;;;;;;;;;;5051158;28;20030;-78
2022/12/02 03:46:24;;;;;;;22.73;13.73;;;;;;;;;;5034560;28;20071;-78
2022/12/02 03:48:50;;;;;;;27.17;15.23;;;;;;;;;;5035720;28;20029;-78
2022/12/02 03:51:15;;;;;;;24.35;13.80;;;;;;;;;;5033655;28;20507;-78
2022/12/02 03:53:41;;;;;;;21.92;13.40;;;;;;;;;;5034132;28;20034;-78
2022/12/02 03:56:07;;;;;;;24.98;14.93;;;;;;;;;;5033879;28;20128;-78
2022/12/02 03:58:38;;;;;;;24.83;15.10;;;;;;;;;;5035339;28;20037;-78
2022/12/02 04:01:04;;;;;;;23.73;13.77;;;;;;;;;;5034560;28;20476;-78
2022/12/02 04:03:29;;;;;;;22.10;13.15;;;;;;;;;;5034259;28;20047;-78
2022/12/02 04:05:54;;;;;;;27.33;14.35;;;;;;;;;;5035624;28;20396;-78
2022/12/02 04:08:20;;;;;;;23.90;14.10;;;;;;;;;;5034429;28;20060;-78
2022/12/02 04:10:45;;;;;;;26.33;14.15;;;;;;;;;;5033912;28;20029;-78
2022/12/02 04:13:10;;;;;;;22.10;13.40;;;;;;;;;;5035679;28;20377;-78
2022/12/02 04:15:36;;;;;;;24.25;14.18;;;;;;;;;;5050889;28;20056;-78
2022/12/02 04:18:01;;;;;;;25.67;14.63;;;;;;;;;;5035148;28;20033;-78
2022/12/02 04:20:26;;;;;;;22.92;13.48;;;;;;;;;;5034928;28;20108;-78
2022/12/02 04:22:52;;;;;;;23.15;13.68;;;;;;;;;;5033973;28;20040;-78
2022/12/02 04:25:17;;;;;;;24.33;14.05;;;;;;;;;;5035025;28;20025;-78
2022/12/02 04:27:43;;;;;;;25.65;13.98;;;;;;;;;;5034763;28;20484;-78
2022/12/02 04:30:08;;;;;;;22.70;13.35;;;;;;;;;;5034931;28;20034;-78
2022/12/02 04:32:34;;;;;;;25.83;13.52;;;;;;;;;;5017014;28;20084;-78
2022/12/02 04:34:59;;;;;;;24.80;14.35;;;;;;;;;;5033394;28;20064;-78
2022/12/02 04:37:24;;;;;;;23.05;13.05;;;;;;;;;;5034851;28;20369;-78
2022/12/02 04:39:50;;;;;;;24.67;13.93;;;;;;;;;;5034588;28;20048;-78
2022/12/02 04:42:15;;;;;;;23.27;13.55;;;;;;;;;;5034396;28;20025;-78
2022/12/02 04:44:41;;;;;;;26.17;13.95;;;;;;;;;;5034969;28;20036;-78
2022/12/02 04:47:06;;;;;;;26.02;14.30;;;;;;;;;;5034672;28;20037;-78
2022/12/02 04:49:31;;;;;;;24.45;13.65;;;;;;;;;;5016536;28;20099;-78
2022/12/02 04:51:57;;;;;;;22.67;14.13;;;;;;;;;;5034577;28;20108;-78
2022/12/02 04:54:22;;;;;;;23.65;13.85;;;;;;;;;;5033162;28;20386;-78
2022/12/02 04:56:47;;;;;;;25.15;14.48;;;;;;;;;;5033996;28;20136;-79
2022/12/02 04:59:13;;;;;;;23.40;13.32;;;;;;;;;;5034194;28;20044;-78
2022/12/02 05:01:38;;;;;;;22.60;13.30;;;;;;;;;;5000256;28;20125;-78
2022/12/02 05:04:03;;;;;;;23.98;13.20;;;;;;;;;;5033594;28;20025;-78
2022/12/02 05:06:29;;;;;;;22.40;13.20;;;;;;;;;;5034396;28;20036;-79
2022/12/02 05:08:54;;;;;;;23.13;13.60;;;;;;;;;;5034650;28;20067;-78
2022/12/02 05:11:19;;;;;;;25.60;13.20;;;;;;;;;;5034318;28;20028;-78
2022/12/02 05:13:45;;;;;;;22.63;12.98;;;;;;;;;;5033088;28;20052;-79
2022/12/02 05:16:10;;;;;;;27.77;13.00;;;;;;;;;;5032903;28;20061;-78
2022/12/02 05:18:35;;;;;;;24.80;13.55;;;;;;;;;;5034133;28;20036;-78
2022/12/02 05:21:01;;;;;;;24.33;13.20;;;;;;;;;;5034725;28;20033;-79
2022/12/02 05:23:26;;;;;;;26.27;12.35;;;;;;;;;;5034431;28;20449;-79
2022/12/02 05:25:51;;;;;;;26.92;12.80;;;;;;;;;;5032784;28;20029;-78
2022/12/02 05:28:17;;;;;;;30.48;13.95;;;;;;;;;;5032715;28;20068;-78
2022/12/02 05:30:42;;;;;;;25.40;12.48;;;;;;;;;;5032960;28;20388;-79
2022/12/02 05:33:08;;;;;;;26.02;12.50;;;;;;;;;;5034086;28;20029;-78
2022/12/02 05:35:33;;;;;;;27.13;12.50;;;;;;;;;;5016237;28;20060;-82
2022/12/02 05:37:58;;;;;;;26.13;12.18;;;;;;;;;;5032716;28;20037;-81
2022/12/02 05:40:24;;;;;;;23.80;11.18;;;;;;;;;;5033828;28;20038;-81
2022/12/02 05:42:49;;;;;;;22.02;10.75;;;;;;;;;;5032583;28;20025;-81
2022/12/02 05:45:20;;;;;;;22.70;11.10;;;;;;;;;;5049055;28;20033;-82
2022/12/02 05:47:52;;;;;;;19.88;10.68;;;;;;;;;;5034194;28;20362;-81
2022/12/02 05:50:18;;;;;;;19.75;10.75;;;;;;;;;;5032481;28;20100;-79
2022/12/02 05:52:44;;;;;;;20.95;10.18;;;;;;;;;;5032481;28;20056;-81
2022/12/02 05:55:18;;;;;;;18.55;10.25;;;;;;;;;;5032407;28;20054;-81
2022/12/02 05:57:44;;;;;;;24.17;10.63;;;;;;;;;;5033846;28;20033;-79
2022/12/02 06:00:17;;;;;;;18.95;9.60;;;;;;;;;;5032633;28;20076;-81
2022/12/02 06:02:50;;;;;;;20.80;9.38;;;;;;;;;;5033475;28;20029;-81
2022/12/02 06:05:23;;;;;;;18.67;9.57;;;;;;;;;;5048722;28;20029;-82
2022/12/02 06:07:52;;;;;;;21.20;8.80;;;;;;;;;;5033451;28;20075;-82
2022/12/02 06:10:24;;;;;;;16.58;9.57;;;;;;;;;;5032456;28;20376;-82
2022/12/02 06:12:52;;;;;;;18.67;9.88;;;;;;;;;;5049298;28;20100;-82
2022/12/02 06:15:17;;;;;;;19.00;8.95;;;;;;;;;;5048403;28;20018;-81
2022/12/02 06:17:42;;;;;;;16.55;9.35;;;;;;;;;;5048980;28;20030;-81
2022/12/02 06:20:28;;;;;;;15.30;9.20;;;;;;;;;;5048696;28;20033;-81
2022/12/02 06:22:54;;;;;;;16.10;9.10;;;;;;;;;;5048892;28;20037;-80
2022/12/02 06:25:26;;;;;;;14.73;9.10;;;;;;;;;;5049344;28;20022;-80
2022/12/02 06:27:55;;;;;;;15.13;8.07;;;;;;;;;;5033506;28;20430;-80
2022/12/02 06:30:20;;;;;;;14.55;8.85;;;;;;;;;;5048649;28;20396;-81
2022/12/02 06:32:55;;;;;;;15.45;8.73;;;;;;;;;;5048853;28;20055;-81
2022/12/02 06:35:26;;;;;;;13.63;8.38;;;;;;;;;;5048507;28;20401;-82
2022/12/02 06:37:57;;;;;;;14.95;9.00;;;;;;;;;;5048503;28;20156;-81
2022/12/02 06:40:23;;;;;;;14.73;8.70;;;;;;;;;;5048795;28;20029;-81
2022/12/02 06:42:49;;;;;;;15.38;8.98;;;;;;;;;;5031764;28;20421;-81
2022/12/02 06:45:30;;;;;;;16.50;9.00;;;;;;;;;;5048377;28;20064;-80
2022/12/02 06:48:01;;;;;;;15.15;8.60;;;;;;;;;;5048514;28;20387;-80
2022/12/02 06:50:35;;;;;;;19.83;8.93;;;;;;;;;;5033249;28;20483;-81
2022/12/02 06:53:25;;;;;;;14.63;9.10;;;;;;;;;;5032985;28;20029;-81
2022/12/02 06:55:58;;;;;;;15.25;9.18;;;;;;;;;;5031557;28;20132;-81
2022/12/02 06:58:26;;;;;;;14.63;8.67;;;;;;;;;;5048320;28;20033;-81
2022/12/02 07:00:52;;;;;;;14.55;8.75;;;;;;;;;;5033198;28;20259;-82
2022/12/02 07:03:33;;;;;;;14.23;8.80;;;;;;;;;;5031620;28;20025;-81
2022/12/02 07:06:20;;;;;;;13.07;8.60;;;;;;;;;;5033269;28;20033;-80
2022/12/02 07:08:46;;;;;;;11.63;8.13;;;;;;;;;;5047855;28;20064;-81
2022/12/02 07:11:48;;;;;;;14.48;8.75;;;;;;;;;;5048145;28;20037;-81
2022/12/02 07:14:46;;;;;;;14.15;8.68;;;;;;;;;;5031438;28;20030;-81
2022/12/02 07:17:22;;;;;;;15.43;8.98;;;;;;;;;;5032714;28;20025;-81
2022/12/02 07:20:09;;;;;;;14.27;8.23;;;;;;;;;;5031232;28;20556;-81
2022/12/02 07:22:36;;;;;;;15.43;8.52;;;;;;;;;;5032791;28;20021;-80
2022/12/02 07:25:07;;;;;;;15.15;8.68;;;;;;;;;;5032808;28;20029;-80
2022/12/02 07:27:35;;;;;;;12.05;8.00;;;;;;;;;;5035676;28;20484;-81
2022/12/02 07:30:01;;;;;;;12.50;7.88;;;;;;;;;;5051403;28;20108;-81
2022/12/02 07:32:27;;;;;;;13.80;8.65;;;;;;;;;;5035184;28;20087;-80
2022/12/02 07:34:52;;;;;;;15.95;8.85;;;;;;;;;;5051506;28;20033;-81
2022/12/02 07:37:21;;;;;;;19.15;8.52;;;;;;;;;;5051215;28;20056;-83
2022/12/02 07:39:46;;;;;;;14.95;8.27;;;;;;;;;;5036417;28;20120;-83
2022/12/02 07:42:13;;;;;;;15.07;9.05;;;;;;;;;;5051304;28;20057;-82
2022/12/02 07:44:39;;;;;;;14.25;8.43;;;;;;;;;;5051399;28;20021;-83
2022/12/02 07:47:06;;;;;;;13.13;8.38;;;;;;;;;;5034750;28;20032;-83
2022/12/02 07:49:31;;;;;;;13.18;8.48;;;;;;;;;;5051374;28;20469;-87
2022/12/02 07:51:56;;;;;;;14.18;8.68;;;;;;;;;;5034584;28;20056;-83
2022/12/02 07:54:22;;;;;;;15.43;8.35;;;;;;;;;;5051097;28;20393;-82
2022/12/02 07:56:47;;;;;;;14.57;8.45;;;;;;;;;;5035639;28;20050;-80
2022/12/02 07:59:13;;;;;;;14.73;8.02;;;;;;;;;;5050993;28;20036;-81
2022/12/02 08:01:38;;;;;;;17.52;8.05;;;;;;;;;;5035618;28;20022;-82
2022/12/02 08:04:04;;;;;;;14.55;8.15;;;;;;;;;;5035730;28;20423;-82
2022/12/02 08:06:29;;;;;;;17.67;8.55;;;;;;;;;;5051413;28;20021;-81
2022/12/02 08:08:55;;;;;;;17.95;8.32;;;;;;;;;;5052134;28;20052;-82
2022/12/02 08:11:20;;;;;;;15.15;7.95;;;;;;;;;;5034859;28;20029;-82
2022/12/02 08:13:45;;;;;;;19.48;8.50;;;;;;;;;;5017545;28;20060;-82
2022/12/02 08:16:11;;;;;;;19.73;7.90;;;;;;;;;;5050800;28;20084;-80
2022/12/02 08:18:36;;;;;;;14.73;8.48;;;;;;;;;;5050498;28;20030;-81
2022/12/02 08:21:02;;;;;;;21.33;9.15;;;;;;;;;;5050778;28;20033;-82
2022/12/02 08:23:27;;;;;;;15.07;8.00;;;;;;;;;;5051168;28;20468;-81
2022/12/02 08:25:52;;;;;;;14.02;7.90;;;;;;;;;;5051100;28;20037;-81
2022/12/02 08:28:18;;;;;;;16.13;8.27;;;;;;;;;;5017299;28;20388;-82
2022/12/02 08:30:43;;;;;;;17.50;7.88;;;;;;;;;;5033756;28;20033;-80
2022/12/02 08:33:09;;;;;;;14.88;8.20;;;;;;;;;;5050646;28;20488;-81
2022/12/02 08:35:34;;;;;;;13.85;8.35;;;;;;;;;;5035314;28;20052;-80
2022/12/02 08:37:59;;;;;;;14.02;7.50;;;;;;;;;;5034753;28;20079;-80
2022/12/02 08:40:25;;;;;;;17.88;8.10;;;;;;;;;;5035001;28;20108;-80
2022/12/02 08:42:50;;;;;;;22.15;8.30;;;;;;;;;;5050192;28;20395;-81
2022/12/02 08:45:15;;;;;;;18.80;8.70;;;;;;;;;;5050407;28;20476;-80
2022/12/02 08:47:41;;;;;;;19.13;8.55;;;;;;;;;;5033649;28;20091;-81
2022/12/02 08:50:06;;;;;;;17.15;9.20;;;;;;;;;;5034718;28;20486;-81
2022/12/02 08:52:32;;;;;;;14.10;8.60;;;;;;;;;;5050392;28;20021;-82
2022/12/02 08:54:57;;;;;;;15.73;9.18;;;;;;;;;;5034419;28;20472;-83
2022/12/02 08:57:24;;;;;;;17.25;8.27;;;;;;;;;;5033722;28;20041;-83
2022/12/02 08:59:49;;;;;;;18.95;8.63;;;;;;;;;;5049841;28;20025;-82
2022/12/02 09:02:14;;;;;;;17.85;8.75;;;;;;;;;;5050540;28;20021;-81
2022/12/02 09:04:40;;;;;;;17.30;9.07;;;;;;;;;;5034774;28;20038;-82
2022/12/02 09:07:05;;;;;;;18.60;8.73;;;;;;;;;;5049913;28;20112;-81
2022/12/02 09:09:30;;;;;;;20.42;9.32;;;;;;;;;;5049961;28;20037;-80
2022/12/02 09:11:56;;;;;;;14.35;7.95;;;;;;;;;;5034516;28;20029;-79
2022/12/02 09:14:21;;;;;;;16.02;8.70;;;;;;;;;;5034201;28;20365;-82
2022/12/02 09:16:47;;;;;;;15.93;9.07;;;;;;;;;;5050274;28;20049;-81
2022/12/02 09:19:13;;;;;;;16.48;9.18;;;;;;;;;;5032988;28;20092;-81
2022/12/02 09:21:38;;;;;;;16.90;9.07;;;;;;;;;;5049641;28;20227;-81
2022/12/02 09:24:04;;;;;;;17.58;8.70;;;;;;;;;;5034246;28;20036;-82
2022/12/02 09:26:30;;;;;;;18.83;8.85;;;;;;;;;;5050178;28;20495;-82
2022/12/02 09:28:55;;;;;;;17.33;8.27;;;;;;;;;;5032786;28;20037;-81
2022/12/02 09:31:20;;;;;;;15.32;9.30;;;;;;;;;;5034471;28;20088;-81
2022/12/02 09:33:46;;;;;;;19.42;8.98;;;;;;;;;;5032543;28;20096;-79
2022/12/02 09:36:11;;;;;;;18.17;8.57;;;;;;;;;;5049173;28;20451;-79
2022/12/02 09:38:37;;;;;;;23.48;9.20;;;;;;;;;;5049068;28;20052;-80
2022/12/02 09:41:02;;;;;;;21.40;9.68;;;;;;;;;;5049055;28;20038;-79
2022/12/02 09:43:28;;;;;;;15.77;8.43;;;;;;;;;;5049310;28;20025;-79
2022/12/02 09:45:54;;;;;;;20.77;9.25;;;;;;;;;;5049236;28;20081;-80
2022/12/02 09:48:19;;;;;;;20.38;8.90;;;;;;;;;;5033006;28;20099;-81
2022/12/02 09:50:45;;;;;;;16.58;9.00;;;;;;;;;;5049092;28;20036;-80
2022/12/02 09:53:12;;;;;;;21.58;9.25;;;;;;;;;;5032134;28;20048;-81
2022/12/02 09:55:37;;;;;;;19.83;8.90;;;;;;;;;;5048932;28;20061;-84
2022/12/02 09:58:15;;;;;;;27.20;9.95;;;;;;;;;;5034171;28;20461;-79
2022/12/02 10:00:40;;;;;;;19.60;8.88;;;;;;;;;;5049863;28;20025;-84
2022/12/02 10:03:07;;;;;;;19.20;8.73;;;;;;;;;;5049780;28;20464;-86
2022/12/02 10:05:32;;;;;;;21.60;9.25;;;;;;;;;;5032344;28;20060;-84
2022/12/02 10:07:59;;;;;;;24.00;9.57;;;;;;;;;;5049643;28;20389;-85
2022/12/02 10:10:36;;;;;;;23.70;10.00;;;;;;;;;;5052612;28;20026;-85
2022/12/02 10:13:02;;;;;;;19.45;9.63;;;;;;;;;;5015743;28;20061;-86
2022/12/02 10:15:30;;;;;;;22.42;9.55;;;;;;;;;;5049464;28;20049;-87
2022/12/02 10:17:56;;;;;;;22.15;9.57;;;;;;;;;;5049463;28;20392;-86
2022/12/02 10:20:25;;;;;;;19.13;9.23;;;;;;;;;;5049793;28;20063;-85
2022/12/02 10:23:15;;;;;;;18.05;9.35;;;;;;;;;;5050188;28;20056;-81
2022/12/02 10:25:46;;;;;;;20.30;9.98;;;;;;;;;;5033154;28;20396;-83
2022/12/02 10:28:21;;;;;;;21.30;9.48;;;;;;;;;;5048991;28;20033;-85
2022/12/02 10:31:00;;;;;;;31.65;10.77;;;;;;;;;;5032071;28;20091;-83
2022/12/02 10:33:28;;;;;;;25.48;10.50;;;;;;;;;;5032147;28;20033;-83
2022/12/02 10:35:54;;;;;;;30.45;11.27;;;;;;;;;;5032112;28;20112;-83
2022/12/02 10:38:39;;;;;;;27.77;11.60;;;;;;;;;;5015540;28;20109;-83
2022/12/02 10:41:14;;;;;;;29.73;11.80;;;;;;;;;;5032106;28;20503;-83
2022/12/02 10:44:03;;;;;;;24.65;10.50;;;;;;;;;;5032966;28;20095;-82
2022/12/02 10:46:29;;;;;;;22.55;10.57;;;;;;;;;;5028508;28;20048;-83
2022/12/02 10:48:55;;;;;;;20.88;10.48;;;;;;;;;;5032520;28;20423;-83
2022/12/02 10:51:21;;;;;;;29.23;11.52;;;;;;;;;;5031957;28;20031;-79
2022/12/02 10:53:49;;;;;;;23.50;12.38;;;;;;;;;;5033326;28;20028;-84
2022/12/02 10:56:20;;;;;;;28.15;12.68;;;;;;;;;;5014962;28;20049;-83
2022/12/02 10:58:47;;;;;;;28.02;13.18;;;;;;;;;;5031981;28;20124;-81
2022/12/02 11:01:12;;;;;;;22.08;12.05;;;;;;;;;;5034361;28;20036;-85
2022/12/02 11:03:38;;;;;;;33.20;12.63;;;;;;;;;;5036005;28;20442;-83
2022/12/02 11:06:06;;;;;;;25.52;11.50;;;;;;;;;;5035965;28;20037;-85
2022/12/02 11:08:31;;;;;;;22.75;10.90;;;;;;;;;;5037495;28;20037;-82
2022/12/02 11:11:24;;;;;;;23.77;12.00;;;;;;;;;;5036848;28;20029;-85
2022/12/02 11:13:56;;;;;;;25.23;12.23;;;;;;;;;;5035239;28;20037;-84
2022/12/02 11:16:27;;;;;;;24.55;11.43;;;;;;;;;;5035439;28;20032;-86
2022/12/02 11:19:09;;;;;;;24.00;12.43;;;;;;;;;;5037820;28;20104;-84
2022/12/02 11:21:39;;;;;;;21.38;11.30;;;;;;;;;;5036423;28;20021;-84
2022/12/02 11:24:23;;;;;;;22.90;11.02;;;;;;;;;;5035734;28;20014;-83
2022/12/02 11:27:03;;;;;;;22.45;11.20;;;;;;;;;;5035090;28;20033;-84
2022/12/02 11:29:32;;;;;;;23.88;11.50;;;;;;;;;;5036731;28;20535;-83
2022/12/02 11:32:19;;;;;;;23.80;11.15;;;;;;;;;;5036233;28;20029;-84
2022/12/02 11:34:47;;;;;;;22.52;11.45;;;;;;;;;;5036506;28;20032;-85
2022/12/02 11:37:25;;;;;;;20.40;11.32;;;;;;;;;;5035217;28;20034;-83
2022/12/02 11:39:58;;;;;;;21.23;11.07;;;;;;;;;;5036349;28;20476;-82
2022/12/02 11:42:26;;;;;;;23.63;10.43;;;;;;;;;;5018852;28;20083;-82
2022/12/02 11:44:52;;;;;;;18.58;10.68;;;;;;;;;;5035106;28;20095;-83
2022/12/02 11:47:28;;;;;;;20.65;11.05;;;;;;;;;;5035340;28;20028;-82
2022/12/02 11:49:54;;;;;;;24.60;12.35;;;;;;;;;;5034711;28;20030;-83
2022/12/02 11:52:24;;;;;;;33.72;14.90;;;;;;;;;;5018420;28;20436;-83
2022/12/02 11:55:05;;;;;;;24.38;12.45;;;;;;;;;;5034507;28;20452;-83
2022/12/02 11:57:40;;;;;;;27.88;12.82;;;;;;;;;;5017868;28;20492;-83
2022/12/02 12:00:33;;;;;;;37.38;13.07;;;;;;;;;;5018372;28;20037;-83
2022/12/02 12:03:18;;;;;;;27.98;12.45;;;;;;;;;;5032187;28;20033;-83
2022/12/02 12:06:03;;;;;;;28.10;11.30;;;;;;;;;;5037263;28;20025;-82
2022/12/02 12:08:28;;;;;;;24.10;12.50;;;;;;;;;;5035381;28;20041;-83
2022/12/02 12:11:25;;;;;;;23.45;12.18;;;;;;;;;;5034515;28;20542;-82
2022/12/02 12:13:56;;;;;;;23.52;11.45;;;;;;;;;;5035147;28;20472;-82
2022/12/02 12:16:23;;;;;;;19.50;10.48;;;;;;;;;;5035448;28;20155;-81
2022/12/02 12:18:49;;;;;;;22.48;11.30;;;;;;;;;;5034209;28;20103;-83
2022/12/02 12:21:32;;;;;;;25.63;12.23;;;;;;;;;;5034336;28;20484;-83
2022/12/02 12:24:19;;;;;;;26.58;11.82;;;;;;;;;;5035400;28;20364;-83
2022/12/02 12:27:10;;;;;;;23.60;11.15;;;;;;;;;;5033909;28;20030;-82
2022/12/02 12:29:38;;;;;;;25.05;13.20;;;;;;;;;;5033984;28;20018;-82
2022/12/02 12:32:05;;;;;;;25.65;12.95;;;;;;;;;;5033897;28;20025;-82
2022/12/02 12:34:31;;;;;;;24.20;12.18;;;;;;;;;;5017250;28;20061;-83
2022/12/02 12:36:56;;;;;;;28.35;13.23;;;;;;;;;;5035049;28;20033;-82
2022/12/02 12:39:22;;;;;;;23.92;12.48;;;;;;;;;;5034216;28;20059;-82
2022/12/02 12:41:47;;;;;;;32.65;14.00;;;;;;;;;;5034945;28;20037;-82
2022/12/02 12:44:13;;;;;;;31.00;14.10;;;;;;;;;;5034962;28;20112;-83
2022/12/02 12:46:39;;;;;;;27.77;15.13;;;;;;;;;;5034770;28;20107;-83
2022/12/02 12:49:04;;;;;;;27.52;14.27;;;;;;;;;;5050578;28;20056;-84
2022/12/02 12:51:29;;;;;;;24.80;14.00;;;;;;;;;;5033524;28;20033;-84
2022/12/02 12:53:55;;;;;;;34.85;15.15;;;;;;;;;;5034642;28;20455;-85
2022/12/02 12:56:20;;;;;;;33.90;15.93;;;;;;;;;;5034579;28;20136;-85
2022/12/02 12:58:46;;;;;;;27.45;15.05;;;;;;;;;;5035174;28;20384;-84
2022/12/02 13:01:11;;;;;;;26.88;14.60;;;;;;;;;;5034081;28;20072;-84
2022/12/02 13:03:37;;;;;;;30.30;15.20;;;;;;;;;;5033483;28;20022;-85
2022/12/02 13:06:03;;;;;;;27.80;14.90;;;;;;;;;;5034560;28;20033;-85
2022/12/02 13:08:28;;;;;;;24.33;13.32;;;;;;;;;;5034688;28;20029;-86
2022/12/02 13:10:54;;;;;;;25.73;13.10;;;;;;;;;;5017427;28;20064;-84
2022/12/02 13:13:19;;;;;;;24.38;12.68;;;;;;;;;;5017663;28;20029;-84
2022/12/02 13:15:45;;;;;;;24.13;13.35;;;;;;;;;;5032987;28;20037;-85
2022/12/02 13:18:11;;;;;;;23.77;12.52;;;;;;;;;;5034120;28;20087;-85
2022/12/02 13:20:36;;;;;;;26.88;12.70;;;;;;;;;;5032842;28;20034;-84
2022/12/02 13:23:02;;;;;;;27.33;12.52;;;;;;;;;;5033061;28;20026;-84
2022/12/02 13:25:27;;;;;;;25.08;11.95;;;;;;;;;;5018246;28;20468;-84
2022/12/02 13:27:52;;;;;;;24.30;12.02;;;;;;;;;;5034019;28;20124;-84
2022/12/02 13:30:19;;;;;;;22.60;11.85;;;;;;;;;;5033900;28;20036;-84
2022/12/02 13:32:48;;;;;;;19.10;11.02;;;;;;;;;;5032933;28;20021;-84
2022/12/02 13:35:14;;;;;;;23.65;11.32;;;;;;;;;;5032496;28;20032;-84
2022/12/02 13:37:40;;;;;;;19.35;10.57;;;;;;;;;;5016152;28;20120;-85
2022/12/02 13:40:08;;;;;;;18.75;10.38;;;;;;;;;;5032591;28;20112;-84
2022/12/02 13:42:33;;;;;;;17.48;9.60;;;;;;;;;;5033199;28;20049;-85
2022/12/02 13:44:58;;;;;;;18.23;9.27;;;;;;;;;;5049134;28;20480;-84
2022/12/02 13:47:24;;;;;;;15.98;8.43;;;;;;;;;;5033929;28;20026;-85
2022/12/02 13:49:49;;;;;;;14.32;8.38;;;;;;;;;;5050197;28;20035;-84
2022/12/02 13:52:15;;;;;;;16.77;8.57;;;;;;;;;;5034815;28;20029;-84
2022/12/02 13:54:40;;;;;;;15.50;8.13;;;;;;;;;;5034864;28;20029;-84
2022/12/02 13:57:06;;;;;;;16.10;8.57;;;;;;;;;;5034100;28;20049;-84
2022/12/02 13:59:31;;;;;;;20.15;8.35;;;;;;;;;;5049204;28;20472;-84
2022/12/02 14:01:56;;;;;;;15.82;8.20;;;;;;;;;;5049201;28;20033;-85
2022/12/02 14:04:22;;;;;;;18.65;8.50;;;;;;;;;;5033351;28;20037;-84
2022/12/02 14:06:47;;;;;;;17.98;8.20;;;;;;;;;;5033636;28;20037;-83
2022/12/02 14:09:12;;;;;;;19.52;8.63;;;;;;;;;;5048847;28;20071;-83
2022/12/02 14:11:39;;;;;;;15.93;7.40;;;;;;;;;;5049151;28;20025;-85
2022/12/02 14:14:04;;;;;;;14.90;7.32;;;;;;;;;;5049137;28;20429;-84
2022/12/02 14:16:30;;;;;;;14.95;7.45;;;;;;;;;;5032156;28;20168;-84
2022/12/02 14:18:55;;;;;;;11.43;6.82;;;;;;;;;;5049185;28;20079;-84
2022/12/02 14:21:21;;;;;;;20.38;7.03;;;;;;;;;;5048610;28;20115;-85
2022/12/02 14:23:46;;;;;;;14.35;7.57;;;;;;;;;;5048898;28;20112;-84
2022/12/02 14:26:12;;;;;;;11.05;6.75;;;;;;;;;;5032332;28;20033;-84
2022/12/02 14:28:37;;;;;;;10.90;6.88;;;;;;;;;;5031992;28;20080;-84
2022/12/02 14:31:03;;;;;;;14.63;6.57;;;;;;;;;;5033408;28;20029;-84